Time;durP1;ratioP1;P1;durP2;ratioP2;P2;SDS_P1;SDS_P2;PMS_P1;PMS_P2;Temp;Humidity;BMP_temperature;BMP_pressure;BME280_temperature;BME280_humidity;BME280_pressure;Samples;Min_cycle;Max_cycle;Signal;HPM_P1;HPM_P2
2021/11/10 00:02:16;;;;;;;;;;;20.80;63.10;;;;;;5074538;28;1298;-67
2021/11/10 00:04:42;;;;;;;;;;;20.80;63.10;;;;;;5074689;28;1232;-67
2021/11/10 00:07:07;;;;;;;;;;;20.80;63.10;;;;;;5089986;28;1244;-67
2021/11/10 00:09:32;;;;;;;;;;;20.80;63.20;;;;;;5074462;28;1340;-67
2021/11/10 00:11:58;;;;;;;;;;;20.80;63.20;;;;;;5073061;28;1901;-67
2021/11/10 00:14:23;;;;;;;;;;;20.70;63.20;;;;;;5074356;28;1314;-67
2021/11/10 00:16:49;;;;;;;;;;;20.80;63.20;;;;;;5072722;28;1313;-67
2021/11/10 00:19:14;;;;;;;;;;;20.70;63.20;;;;;;5074246;28;1318;-67
2021/11/10 00:21:40;;;;;;;;;;;20.70;63.20;;;;;;5073595;28;1354;-67
2021/11/10 00:24:05;;;;;;;;;;;20.70;63.30;;;;;;5073343;28;1296;-67
2021/11/10 00:26:31;;;;;;;;;;;20.70;63.30;;;;;;5073829;28;1178;-67
2021/11/10 00:28:56;;;;;;;;;;;20.70;64.10;;;;;;5073292;28;1301;-67
2021/11/10 00:31:21;;;;;;;;;;;20.70;63.30;;;;;;5067718;28;1975;-67
2021/11/10 00:33:47;;;;;;;;;;;20.70;63.40;;;;;;5073782;28;1289;-67
2021/11/10 00:36:12;;;;;;;;;;;20.70;63.40;;;;;;5073681;28;1305;-67
2021/11/10 00:38:38;;;;;;;;;;;20.70;63.40;;;;;;5073525;28;1301;-67
2021/11/10 00:41:03;;;;;;;;;;;20.70;63.40;;;;;;5055315;28;1298;-67
2021/11/10 00:43:29;;;;;;;;;;;20.70;63.50;;;;;;5073879;28;1289;-67
2021/11/10 00:45:54;;;;;;;;;;;20.70;63.50;;;;;;5073848;28;1266;-67
2021/11/10 00:48:20;;;;;;;;;;;20.70;63.50;;;;;;5073451;28;1309;-67
2021/11/10 00:50:45;;;;;;;;;;;20.70;63.50;;;;;;5072457;28;1337;-67
2021/11/10 00:53:11;;;;;;;;;;;20.60;63.50;;;;;;5073056;28;1957;-68
2021/11/10 00:55:36;;;;;;;;;;;20.60;63.40;;;;;;5073514;28;1317;-67
2021/11/10 00:58:02;;;;;;;;;;;20.60;63.50;;;;;;5067140;28;1946;-67
2021/11/10 01:00:28;;;;;;;;;;;20.70;63.50;;;;;;5054121;28;1324;-67
2021/11/10 01:02:53;;;;;;;;;;;20.70;63.50;;;;;;5088620;28;1391;-67
2021/11/10 01:05:19;;;;;;;;;;;20.60;63.50;;;;;;5073796;28;1236;-67
2021/11/10 01:07:44;;;;;;;;;;;20.60;63.50;;;;;;5072836;28;1276;-67
2021/11/10 01:10:10;;;;;;;;;;;20.70;63.60;;;;;;5072765;28;1341;-67
2021/11/10 01:12:36;;;;;;;;;;;20.70;63.60;;;;;;5087977;28;1969;-67
2021/11/10 01:15:02;;;;;;;;;;;20.70;63.60;;;;;;5088538;28;1331;-67
2021/11/10 01:17:27;;;;;;;;;;;20.60;63.50;;;;;;5073095;28;1143;-67
2021/11/10 01:19:52;;;;;;;;;;;20.70;63.60;;;;;;5055332;28;1368;-67
2021/11/10 01:22:18;;;;;;;;;;;20.60;63.50;;;;;;5071737;28;1397;-67
2021/11/10 01:24:44;;;;;;;;;;;20.70;63.60;;;;;;5073096;28;1361;-67
2021/11/10 01:27:09;;;;;;;;;;;20.70;63.60;;;;;;5088521;28;1357;-67
2021/11/10 01:29:35;;;;;;;;;;;20.70;63.60;;;;;;5072046;28;1436;-67
2021/11/10 01:32:00;;;;;;;;;;;20.60;63.50;;;;;;5071843;28;1910;-67
2021/11/10 01:34:26;;;;;;;;;;;20.70;63.60;;;;;;5072760;28;1311;-67
2021/11/10 01:36:51;;;;;;;;;;;20.60;63.50;;;;;;5071509;28;1263;-67
2021/11/10 01:39:17;;;;;;;;;;;20.60;63.50;;;;;;5073283;28;1302;-67
2021/11/10 01:41:47;;;;;;;;;;;20.60;63.50;;;;;;5072624;28;1394;-67
2021/11/10 01:44:16;;;;;;;;;;;20.60;63.60;;;;;;5072272;28;1389;-67
2021/11/10 01:46:41;;;;;;;;;;;20.60;63.60;;;;;;5072401;28;1226;-68
2021/11/10 01:49:07;;;;;;;;;;;20.60;63.60;;;;;;5072476;28;1283;-67
2021/11/10 01:51:32;;;;;;;;;;;20.60;63.60;;;;;;5071499;28;1961;-67
2021/11/10 01:53:58;;;;;;;;;;;20.60;63.60;;;;;;5072652;28;1381;-67
2021/11/10 01:56:24;;;;;;;;;;;20.60;63.60;;;;;;5072310;28;1372;-67
2021/11/10 01:58:50;;;;;;;;;;;20.60;63.60;;;;;;5087640;28;1388;-67
2021/11/10 02:01:15;;;;;;;;;;;20.60;63.60;;;;;;5071752;28;1284;-67
2021/11/10 02:03:41;;;;;;;;;;;20.60;63.60;;;;;;5072513;28;1355;-67
2021/11/10 02:06:06;;;;;;;;;;;20.60;63.60;;;;;;5071738;28;1261;-68
2021/11/10 02:08:32;;;;;;;;;;;20.60;63.60;;;;;;5072196;28;1537;-67
2021/11/10 02:10:57;;;;;;;;;;;20.60;63.70;;;;;;5087503;28;1512;-67
2021/11/10 02:13:22;;;;;;;;;;;20.60;63.70;;;;;;5072104;28;1967;-68
2021/11/10 02:15:48;;;;;;;;;;;20.60;63.70;;;;;;5072375;28;1181;-68
2021/11/10 02:18:13;;;;;;;;;;;20.60;63.70;;;;;;5072220;28;1267;-68
2021/11/10 02:20:39;;;;;;;;;;;20.60;63.70;;;;;;5071768;28;1258;-68
2021/11/10 02:23:05;;;;;;;;;;;20.60;63.70;;;;;;5071271;28;1274;-68
2021/11/10 02:25:30;;;;;;;;;;;20.60;63.70;;;;;;5087588;28;1258;-68
2021/11/10 02:27:56;;;;;;;;;;;20.60;63.70;;;;;;5087599;28;1353;-68
2021/11/10 02:30:21;;;;;;;;;;;20.60;63.70;;;;;;5072311;28;1299;-68
2021/11/10 02:32:48;;;;;;;;;;;20.60;63.70;;;;;;5071412;28;1906;-68
2021/11/10 02:35:18;;;;;;;;;;;20.60;63.70;;;;;;5071781;28;1367;-68
2021/11/10 02:37:43;;;;;;;;;;;20.60;63.70;;;;;;5072245;28;1335;-68
2021/11/10 02:40:09;;;;;;;;;;;20.60;63.70;;;;;;5088139;28;1258;-68
2021/11/10 02:42:34;;;;;;;;;;;20.60;63.70;;;;;;5071900;28;1333;-68
2021/11/10 02:44:59;;;;;;;;;;;20.60;63.70;;;;;;5087055;28;1285;-68
2021/11/10 02:47:25;;;;;;;;;;;20.60;63.70;;;;;;5089444;28;1479;-68
2021/11/10 02:49:50;;;;;;;;;;;20.60;63.70;;;;;;5071902;28;1255;-68
2021/11/10 02:52:18;;;;;;;;;;;20.60;63.70;;;;;;5074827;28;1959;-68
2021/11/10 02:54:44;;;;;;;;;;;20.60;63.70;;;;;;5091426;28;1382;-68
2021/11/10 02:57:09;;;;;;;;;;;20.50;63.60;;;;;;5091631;28;1321;-68
2021/11/10 02:59:35;;;;;;;;;;;20.60;63.70;;;;;;5090467;28;1318;-68
2021/11/10 03:02:00;;;;;;;;;;;20.50;63.60;;;;;;5090805;28;1355;-68
2021/11/10 03:04:27;;;;;;;;;;;20.60;63.70;;;;;;5091065;28;1076;-68
2021/11/10 03:06:52;;;;;;;;;;;20.60;63.70;;;;;;5075541;28;1091;-68
2021/11/10 03:09:18;;;;;;;;;;;20.60;63.70;;;;;;5069206;28;1297;-68
2021/11/10 03:11:44;;;;;;;;;;;20.60;63.70;;;;;;5064638;28;2054;-68
2021/11/10 03:14:10;;;;;;;;;;;20.60;63.70;;;;;;5052972;28;1215;-68
2021/11/10 03:16:35;;;;;;;;;;;20.50;63.60;;;;;;5063578;28;1183;-68
2021/11/10 03:19:00;;;;;;;;;;;20.50;63.70;;;;;;5065512;28;1250;-67
2021/11/10 03:21:26;;;;;;;;;;;20.50;63.70;;;;;;5066395;28;1237;-69
2021/11/10 03:23:52;;;;;;;;;;;20.50;63.70;;;;;;5083705;28;1246;-69
2021/11/10 03:26:20;;;;;;;;;;;20.50;63.70;;;;;;5065796;28;1191;-68
2021/11/10 03:28:45;;;;;;;;;;;20.50;63.60;;;;;;5066232;28;1343;-68
2021/11/10 03:31:11;;;;;;;;;;;20.50;63.70;;;;;;5056319;28;1255;-68
2021/11/10 03:33:36;;;;;;;;;;;20.50;63.70;;;;;;5064975;28;1971;-68
2021/11/10 03:36:02;;;;;;;;;;;20.50;63.70;;;;;;5066000;28;1211;-68
2021/11/10 03:38:27;;;;;;;;;;;20.50;63.70;;;;;;5053074;28;1697;-69
2021/11/10 03:40:53;;;;;;;;;;;20.50;63.70;;;;;;5068580;28;1274;-69
2021/11/10 03:43:18;;;;;;;;;;;20.50;63.70;;;;;;5074088;28;1239;-68
2021/11/10 03:45:44;;;;;;;;;;;20.50;63.70;;;;;;5068960;28;1463;-67
2021/11/10 03:48:12;;;;;;;;;;;20.50;63.80;;;;;;5065292;28;1273;-67
2021/11/10 03:50:38;;;;;;;;;;;20.50;63.80;;;;;;5066061;28;1186;-67
2021/11/10 03:53:04;;;;;;;;;;;20.50;63.80;;;;;;5065076;28;1953;-68
2021/11/10 03:55:40;;;;;;;;;;;20.50;63.80;;;;;;5066449;28;1148;-68
2021/11/10 03:58:06;;;;;;;;;;;20.50;63.80;;;;;;5073194;28;1272;-68
2021/11/10 04:00:31;;;;;;;;;;;20.50;63.80;;;;;;5056584;28;1166;-68
2021/11/10 04:02:57;;;;;;;;;;;20.50;63.80;;;;;;5073268;28;1268;-67
2021/11/10 04:05:22;;;;;;;;;;;20.50;63.80;;;;;;5074811;28;1252;-67
2021/11/10 04:07:48;;;;;;;;;;;20.50;63.80;;;;;;5054978;28;1694;-69
2021/11/10 04:10:14;;;;;;;;;;;20.50;63.80;;;;;;5067101;28;1298;-69
2021/11/10 04:12:39;;;;;;;;;;;20.50;63.80;;;;;;5065113;28;1906;-69
2021/11/10 04:15:05;;;;;;;;;;;20.50;63.80;;;;;;5055512;28;1275;-68
2021/11/10 04:17:30;;;;;;;;;;;20.50;63.90;;;;;;5056393;28;1184;-68
2021/11/10 04:19:56;;;;;;;;;;;20.50;63.90;;;;;;5074132;28;1323;-68
2021/11/10 04:22:23;;;;;;;;;;;20.50;63.90;;;;;;5074088;28;1313;-69
2021/11/10 04:24:49;;;;;;;;;;;20.40;63.90;;;;;;5074286;28;1389;-69
2021/11/10 04:27:18;;;;;;;;;;;20.50;63.90;;;;;;5074538;28;1344;-69
2021/11/10 04:29:43;;;;;;;;;;;20.50;63.90;;;;;;5068802;28;1292;-68
2021/11/10 04:32:09;;;;;;;;;;;20.40;63.90;;;;;;5065042;28;1977;-69
2021/11/10 04:34:34;;;;;;;;;;;20.50;63.90;;;;;;5068079;28;1135;-68
2021/11/10 04:37:00;;;;;;;;;;;20.40;63.90;;;;;;5068306;28;1196;-68
2021/11/10 04:39:25;;;;;;;;;;;20.40;64.60;;;;;;5072384;28;1367;-68
2021/11/10 04:41:51;;;;;;;;;;;20.40;63.90;;;;;;5073158;28;1244;-69
2021/11/10 04:44:16;;;;;;;;;;;20.40;63.90;;;;;;5073237;28;1302;-69
2021/11/10 04:46:42;;;;;;;;;;;20.40;63.90;;;;;;5073256;28;1264;-69
2021/11/10 04:49:07;;;;;;;;;;;20.40;63.90;;;;;;5073886;28;1365;-68
2021/11/10 04:51:33;;;;;;;;;;;20.40;63.90;;;;;;5072655;28;1898;-68
2021/11/10 04:54:04;;;;;;;;;;;20.40;63.90;;;;;;5073667;28;1410;-68
2021/11/10 04:56:29;;;;;;;;;;;20.40;63.90;;;;;;5056102;28;1346;-68
2021/11/10 04:58:55;;;;;;;;;;;20.40;64.00;;;;;;5072518;28;1742;-68
2021/11/10 05:01:25;;;;;;;;;;;20.40;64.00;;;;;;5051549;28;1283;-68
2021/11/10 05:03:51;;;;;;;;;;;20.40;64.00;;;;;;5064342;28;1148;-68
2021/11/10 05:06:17;;;;;;;;;;;20.40;64.00;;;;;;5063441;28;1279;-69
2021/11/10 05:08:42;;;;;;;;;;;20.40;64.00;;;;;;5064757;28;1388;-68
2021/11/10 05:11:08;;;;;;;;;;;20.40;64.00;;;;;;5063289;28;1199;-68
2021/11/10 05:13:33;;;;;;;;;;;20.40;64.00;;;;;;5065524;28;1973;-69
2021/11/10 05:15:59;;;;;;;;;;;20.40;64.00;;;;;;5051921;28;1231;-67
2021/11/10 05:18:24;;;;;;;;;;;20.40;64.00;;;;;;5065493;28;1359;-68
2021/11/10 05:20:50;;;;;;;;;;;20.40;64.00;;;;;;5064686;28;1796;-69
2021/11/10 05:23:18;;;;;;;;;;;20.40;64.00;;;;;;5063651;28;1203;-70
2021/11/10 05:25:43;;;;;;;;;;;20.40;64.00;;;;;;5063483;28;1167;-68
2021/11/10 05:28:09;;;;;;;;;;;20.40;64.00;;;;;;5062333;28;1342;-68
2021/11/10 05:30:36;;;;;;;;;;;20.40;64.00;;;;;;5070806;28;1355;-68
2021/11/10 05:33:02;;;;;;;;;;;20.40;64.00;;;;;;5070216;28;1965;-68
2021/11/10 05:35:27;;;;;;;;;;;20.40;64.10;;;;;;5061175;28;1389;-67
2021/11/10 05:37:53;;;;;;;;;;;20.40;64.00;;;;;;5068041;28;1345;-69
2021/11/10 05:40:18;;;;;;;;;;;20.40;64.00;;;;;;5072412;28;1320;-68
2021/11/10 05:42:44;;;;;;;;;;;20.40;64.10;;;;;;5071404;28;1249;-69
2021/11/10 05:45:09;;;;;;;;;;;20.40;64.10;;;;;;5072891;28;1329;-68
2021/11/10 05:47:35;;;;;;;;;;;20.40;64.00;;;;;;5072310;28;1278;-68
2021/11/10 05:50:00;;;;;;;;;;;20.40;64.00;;;;;;5072857;28;1265;-67
2021/11/10 05:52:26;;;;;;;;;;;20.40;63.90;;;;;;5053774;28;1965;-67
2021/11/10 05:54:53;;;;;;;;;;;20.40;63.80;;;;;;5072100;28;1281;-67
2021/11/10 05:57:18;;;;;;;;;;;20.50;63.80;;;;;;5071798;28;1219;-68
2021/11/10 05:59:44;;;;;;;;;;;20.50;63.70;;;;;;5072081;28;1333;-68
2021/11/10 06:02:09;;;;;;;;;;;20.50;63.60;;;;;;5053261;28;1423;-68
2021/11/10 06:04:35;;;;;;;;;;;20.50;63.60;;;;;;5072471;28;984;-68
2021/11/10 06:07:00;;;;;;;;;;;20.50;63.50;;;;;;5054189;28;1492;-68
2021/11/10 06:09:26;;;;;;;;;;;20.50;63.40;;;;;;5054406;28;1307;-68
2021/11/10 06:11:51;;;;;;;;;;;20.60;63.40;;;;;;5053200;28;1906;-68
2021/11/10 06:14:17;;;;;;;;;;;20.60;63.40;;;;;;5071617;28;1314;-68
2021/11/10 06:16:42;;;;;;;;;;;20.60;63.30;;;;;;5070756;28;1442;-68
2021/11/10 06:19:08;;;;;;;;;;;20.60;63.30;;;;;;5072280;28;1288;-68
2021/11/10 06:21:33;;;;;;;;;;;20.60;63.20;;;;;;5071526;28;1254;-68
2021/11/10 06:23:58;;;;;;;;;;;20.60;63.20;;;;;;5072565;28;1448;-67
2021/11/10 06:26:24;;;;;;;;;;;20.60;63.10;;;;;;5071353;28;1325;-68
2021/11/10 06:28:49;;;;;;;;;;;20.60;63.10;;;;;;5071675;28;1361;-68
2021/11/10 06:31:15;;;;;;;;;;;20.60;63.10;;;;;;5063775;28;1838;-67
2021/11/10 06:33:40;;;;;;;;;;;20.70;63.10;;;;;;5060931;28;2163;-68
2021/11/10 06:36:06;;;;;;;;;;;20.70;63.10;;;;;;5069608;28;1180;-68
2021/11/10 06:38:31;;;;;;;;;;;20.60;63.00;;;;;;5069258;28;1337;-68
2021/11/10 06:40:57;;;;;;;;;;;20.70;63.00;;;;;;5068887;28;1329;-68
2021/11/10 06:43:25;;;;;;;;;;;20.60;62.90;;;;;;5070052;28;1308;-67
2021/11/10 06:45:50;;;;;;;;;;;20.60;62.90;;;;;;5070694;28;1170;-67
2021/11/10 06:48:16;;;;;;;;;;;20.70;62.90;;;;;;5070602;28;1372;-67
2021/11/10 06:50:41;;;;;;;;;;;20.70;62.90;;;;;;5071204;28;1317;-68
2021/11/10 06:53:08;;;;;;;;;;;20.70;62.90;;;;;;5069927;28;1938;-68
2021/11/10 06:55:33;;;;;;;;;;;20.70;62.90;;;;;;5070580;28;1297;-68
2021/11/10 06:57:59;;;;;;;;;;;20.70;62.90;;;;;;5053480;28;1267;-68
2021/11/10 07:00:24;;;;;;;;;;;20.70;62.80;;;;;;5069604;28;1968;-68
2021/11/10 07:02:50;;;;;;;;;;;20.70;62.80;;;;;;5070240;28;1304;-66
2021/11/10 07:05:15;;;;;;;;;;;20.70;62.70;;;;;;5070956;28;1326;-66
2021/11/10 07:07:41;;;;;;;;;;;20.70;60.10;;;;;;5070658;28;1378;-66
2021/11/10 07:10:06;;;;;;;;;;;20.70;62.00;;;;;;5070282;28;1286;-68
2021/11/10 07:12:32;;;;;;;;;;;20.70;60.40;;;;;;5069895;28;1971;-68
2021/11/10 07:14:57;;;;;;;;;;;20.70;57.30;;;;;;5070547;28;1279;-68
2021/11/10 07:17:23;;;;;;;;;;;20.60;57.20;;;;;;5070682;28;1322;-68
2021/11/10 07:19:50;;;;;;;;;;;20.70;57.30;;;;;;5070434;28;1319;-68
2021/11/10 07:22:16;;;;;;;;;;;20.70;57.50;;;;;;5069574;28;1284;-68
2021/11/10 07:24:41;;;;;;;;;;;20.70;57.70;;;;;;5085712;28;1300;-68
2021/11/10 07:27:07;;;;;;;;;;;20.70;57.80;;;;;;5069989;28;1409;-68
2021/11/10 07:29:32;;;;;;;;;;;20.70;57.90;;;;;;5055740;28;11925;-68
2021/11/10 07:32:03;;;;;;;;;;;20.70;58.10;;;;;;5083980;27;9348;-67
2021/11/10 07:34:29;;;;;;;;;;;20.70;58.20;;;;;;5042422;28;1625;-67
2021/11/10 07:36:54;;;;;;;;;;;20.70;58.50;;;;;;5057174;28;1360;-67
2021/11/10 07:39:20;;;;;;;;;;;20.70;58.90;;;;;;5048680;28;1342;-68
2021/11/10 07:41:48;;;;;;;;;;;20.70;59.30;;;;;;5045776;28;1329;-68
2021/11/10 07:44:14;;;;;;;;;;;20.80;59.20;;;;;;5048437;28;1275;-67
2021/11/10 07:46:40;;;;;;;;;;;20.90;59.10;;;;;;5047030;28;1339;-66
2021/11/10 07:49:06;;;;;;;;;;;21.00;59.20;;;;;;5048323;28;1360;-66
2021/11/10 07:51:31;;;;;;;;;;;21.10;59.20;;;;;;5047725;28;1906;-66
2021/11/10 07:53:56;;;;;;;;;;;21.20;59.10;;;;;;5047515;28;1260;-66
2021/11/10 07:56:22;;;;;;;;;;;21.30;58.90;;;;;;5048363;28;1320;-66
2021/11/10 07:58:47;;;;;;;;;;;21.40;58.70;;;;;;5048270;28;1777;-68
2021/11/10 08:01:13;;;;;;;;;;;21.50;58.60;;;;;;5046955;28;1279;-68
2021/11/10 08:03:38;;;;;;;;;;;21.50;58.50;;;;;;5047652;28;1478;-68
2021/11/10 08:06:04;;;;;;;;;;;21.60;58.30;;;;;;5048246;28;1338;-68
2021/11/10 08:08:29;;;;;;;;;;;21.70;58.20;;;;;;5048545;28;1310;-68
2021/11/10 08:10:55;;;;;;;;;;;21.80;58.10;;;;;;5045948;28;1902;-68
2021/11/10 08:13:21;;;;;;;;;;;21.80;57.90;;;;;;5047261;28;1324;-68
2021/11/10 08:15:46;;;;;;;;;;;21.90;57.80;;;;;;5036409;28;1257;-68
2021/11/10 08:18:12;;;;;;;;;;;22.00;57.70;;;;;;5027793;28;1225;-68
2021/11/10 08:20:37;;;;;;;;;;;22.00;57.70;;;;;;5028090;28;1268;-68
2021/11/10 08:23:02;;;;;;;;;;;22.00;57.60;;;;;;5026844;28;1246;-68
2021/11/10 08:25:28;;;;;;;;;;;22.10;57.50;;;;;;5027569;28;1358;-67
2021/11/10 08:27:55;;;;;;;;;;;22.20;57.50;;;;;;5027463;28;1359;-67
2021/11/10 08:30:21;;;;;;;;;;;22.20;57.40;;;;;;5013942;28;9628;-67
2021/11/10 08:32:47;;;;;;;;;;;22.20;57.40;;;;;;5019617;28;11651;-67
2021/11/10 08:35:12;;;;;;;;;;;22.20;57.30;;;;;;5028033;28;1288;-67
2021/11/10 08:37:38;;;;;;;;;;;22.20;57.30;;;;;;5028432;28;1349;-68
2021/11/10 08:40:04;;;;;;;;;;;22.30;57.30;;;;;;5027455;28;1304;-68
2021/11/10 08:42:33;;;;;;;;;;;22.30;57.40;;;;;;5018124;28;1308;-68
2021/11/10 08:45:08;;;;;;;;;;;22.30;57.30;;;;;;5014065;28;1323;-68
2021/11/10 08:47:34;;;;;;;;;;;22.30;57.30;;;;;;5015094;28;1293;-68
2021/11/10 08:49:59;;;;;;;;;;;22.40;57.40;;;;;;5015260;28;1898;-68
2021/11/10 08:52:27;;;;;;;;;;;22.40;57.40;;;;;;5013999;28;1335;-67
2021/11/10 08:54:52;;;;;;;;;;;22.40;57.40;;;;;;5015565;28;1288;-67
2021/11/10 08:57:18;;;;;;;;;;;22.40;57.40;;;;;;5013312;28;1379;-67
2021/11/10 08:59:43;;;;;;;;;;;22.40;57.40;;;;;;5015235;28;1283;-67
2021/11/10 09:02:09;;;;;;;;;;;22.40;57.50;;;;;;5013986;28;1248;-68
2021/11/10 09:04:34;;;;;;;;;;;22.40;57.50;;;;;;5015058;28;1111;-67
2021/11/10 09:06:59;;;;;;;;;;;22.40;57.50;;;;;;5014495;28;1345;-67
2021/11/10 09:09:25;;;;;;;;;;;22.40;57.40;;;;;;5014924;28;1291;-67
2021/11/10 09:11:50;;;;;;;;;;;22.40;57.50;;;;;;5014063;28;2274;-67
2021/11/10 09:14:16;;;;;;;;;;;22.40;57.40;;;;;;5013580;28;1904;-67
2021/11/10 09:16:42;;;;;;;;;;;22.40;57.40;;;;;;5011507;28;2310;-67
2021/11/10 09:19:09;;;;;;;;;;;22.40;57.40;;;;;;5014476;28;1381;-67
2021/11/10 09:21:34;;;;;;;;;;;22.40;57.50;;;;;;5013668;28;1120;-67
2021/11/10 09:24:00;;;;;;;;;;;22.40;57.50;;;;;;5012664;28;1251;-66
2021/11/10 09:26:25;;;;;;;;;;;22.40;57.60;;;;;;5014240;28;1288;-66
2021/11/10 09:28:53;;;;;;;;;;;22.40;57.60;;;;;;5014508;28;1350;-67
2021/11/10 09:31:18;;;;;;;;;;;22.30;57.60;;;;;;5013242;28;1906;-67
2021/11/10 09:33:46;;;;;;;;;;;22.30;57.60;;;;;;5013069;28;1276;-67
2021/11/10 09:36:12;;;;;;;;;;;22.30;57.70;;;;;;5014052;28;1049;-67
2021/11/10 09:38:38;;;;;;;;;;;22.30;57.80;;;;;;5014289;28;1309;-67
2021/11/10 09:41:04;;;;;;;;;;;22.30;57.80;;;;;;5012233;28;1319;-67
2021/11/10 09:43:30;;;;;;;;;;;22.20;57.80;;;;;;5014103;28;1049;-66
2021/11/10 09:45:56;;;;;;;;;;;22.20;57.90;;;;;;5013379;28;1946;-67
2021/11/10 09:48:21;;;;;;;;;;;22.20;58.00;;;;;;5011361;28;2650;-67
2021/11/10 09:50:48;;;;;;;;;;;22.20;58.10;;;;;;5011745;28;1906;-67
2021/11/10 09:53:13;;;;;;;;;;;22.20;58.10;;;;;;5012915;28;1246;-67
2021/11/10 09:55:39;;;;;;;;;;;22.20;58.20;;;;;;5010899;28;1266;-67
2021/11/10 09:58:04;;;;;;;;;;;22.10;58.20;;;;;;5012565;28;1326;-67
2021/11/10 10:00:31;;;;;;;;;;;22.10;58.20;;;;;;5012726;28;1861;-67
2021/11/10 10:02:57;;;;;;;;;;;22.10;58.30;;;;;;5006591;28;1046;-67
2021/11/10 10:05:26;;;;;;;;;;;22.10;58.30;;;;;;5013139;28;1365;-67
2021/11/10 10:07:52;;;;;;;;;;;22.10;58.40;;;;;;5013688;28;1373;-66
2021/11/10 10:10:18;;;;;;;;;;;22.10;58.40;;;;;;5010201;28;1967;-67
2021/11/10 10:12:43;;;;;;;;;;;22.10;58.40;;;;;;5010251;28;1962;-68
2021/11/10 10:15:09;;;;;;;;;;;22.10;58.40;;;;;;5010991;28;1203;-70
2021/11/10 10:17:34;;;;;;;;;;;22.10;58.40;;;;;;5013364;28;1268;-68
2021/11/10 10:19:59;;;;;;;;;;;22.10;58.40;;;;;;5013423;28;1375;-68
2021/11/10 10:22:25;;;;;;;;;;;22.10;58.50;;;;;;5012533;28;1255;-73
2021/11/10 10:24:51;;;;;;;;;;;22.10;58.50;;;;;;5011961;28;1319;-70
2021/11/10 10:27:30;;;;;;;;;;;22.10;58.60;;;;;;5012783;28;1292;-70
2021/11/10 10:30:14;;;;;;;;;;;22.10;58.80;;;;;;5013237;28;1957;-70
2021/11/10 10:32:40;;;;;;;;;;;22.00;59.00;;;;;;5012705;28;1362;-69
2021/11/10 10:35:35;;;;;;;;;;;22.00;59.20;;;;;;5012505;28;2021;-69
2021/11/10 10:38:00;;;;;;;;;;;22.00;59.30;;;;;;5005145;28;1401;-72
2021/11/10 10:40:27;;;;;;;;;;;22.00;59.40;;;;;;5012704;28;1088;-71
2021/11/10 10:42:53;;;;;;;;;;;22.00;59.40;;;;;;5010927;28;1414;-70
2021/11/10 10:45:25;;;;;;;;;;;22.00;59.50;;;;;;5013362;28;1363;-69
2021/11/10 10:48:04;;;;;;;;;;;22.00;59.50;;;;;;5012597;28;1361;-70
2021/11/10 10:50:43;;;;;;;;;;;22.00;59.50;;;;;;5011903;28;1898;-70
2021/11/10 10:53:13;;;;;;;;;;;22.00;59.50;;;;;;5012019;28;1301;-70
2021/11/10 10:55:42;;;;;;;;;;;22.00;59.40;;;;;;5012419;28;1402;-70
2021/11/10 10:58:09;;;;;;;;;;;22.00;59.40;;;;;;5011962;28;1398;-70
2021/11/10 11:00:36;;;;;;;;;;;22.00;59.40;;;;;;5011481;28;1340;-69
2021/11/10 11:03:22;;;;;;;;;;;22.10;59.40;;;;;;5010820;28;1302;-69
2021/11/10 11:05:48;;;;;;;;;;;22.10;59.30;;;;;;5012788;28;1016;-70
2021/11/10 11:08:34;;;;;;;;;;;22.10;59.30;;;;;;5012968;28;1715;-70
2021/11/10 11:11:00;;;;;;;;;;;22.10;59.30;;;;;;5011700;28;1899;-69
2021/11/10 11:13:44;;;;;;;;;;;22.10;59.20;;;;;;5011514;28;1311;-68
2021/11/10 11:16:10;;;;;;;;;;;22.10;59.20;;;;;;5012463;28;1229;-70
2021/11/10 11:18:35;;;;;;;;;;;22.10;59.20;;;;;;5012449;28;1361;-70
2021/11/10 11:21:20;;;;;;;;;;;22.10;59.20;;;;;;5010984;28;1087;-68
2021/11/10 11:23:45;;;;;;;;;;;22.10;59.10;;;;;;5000703;28;1648;-68
2021/11/10 11:26:29;;;;;;;;;;;22.20;59.10;;;;;;5012103;28;1369;-70
2021/11/10 11:28:56;;;;;;;;;;;22.20;59.10;;;;;;5012868;28;1291;-68
2021/11/10 11:31:33;;;;;;;;;;;22.20;59.10;;;;;;5011343;28;1910;-68
2021/11/10 11:34:00;;;;;;;;;;;22.20;59.10;;;;;;5003176;28;1690;-69
2021/11/10 11:36:44;;;;;;;;;;;22.20;59.20;;;;;;5009086;28;1391;-68
2021/11/10 11:39:09;;;;;;;;;;;22.20;59.20;;;;;;5011370;28;1355;-68
2021/11/10 11:41:35;;;;;;;;;;;22.20;59.20;;;;;;5007490;28;1609;-68
2021/11/10 11:44:00;;;;;;;;;;;22.20;59.10;;;;;;5009456;28;1053;-68
2021/11/10 11:46:26;;;;;;;;;;;22.20;59.20;;;;;;5011362;28;1318;-67
2021/11/10 11:48:55;;;;;;;;;;;22.20;59.10;;;;;;5024911;28;1379;-68
2021/11/10 11:51:20;;;;;;;;;;;22.20;59.10;;;;;;5030230;28;1902;-67
2021/11/10 11:53:46;;;;;;;;;;;22.20;59.10;;;;;;5029413;28;1263;-67
2021/11/10 11:56:12;;;;;;;;;;;22.20;59.20;;;;;;5029626;28;1063;-67
2021/11/10 11:58:38;;;;;;;;;;;22.30;59.20;;;;;;5031141;28;1364;-67
2021/11/10 12:01:08;;;;;;;;;;;22.30;59.20;;;;;;5013179;28;1327;-67
2021/11/10 12:03:35;;;;;;;;;;;22.20;59.20;;;;;;5010034;28;1254;-67
2021/11/10 12:06:00;;;;;;;;;;;22.20;59.20;;;;;;5009523;28;1034;-67
2021/11/10 12:08:45;;;;;;;;;;;22.20;59.20;;;;;;5011576;28;1330;-68
2021/11/10 12:11:19;;;;;;;;;;;22.30;59.20;;;;;;5010668;28;2022;-66
2021/11/10 12:14:03;;;;;;;;;;;22.20;59.20;;;;;;5011318;28;1333;-67
2021/11/10 12:16:29;;;;;;;;;;;22.30;59.20;;;;;;5010840;28;1357;-67
2021/11/10 12:18:56;;;;;;;;;;;22.30;59.20;;;;;;5013764;28;2288;-67
2021/11/10 12:21:22;;;;;;;;;;;22.30;59.20;;;;;;5015570;28;1527;-67
2021/11/10 12:23:50;;;;;;;;;;;22.30;59.20;;;;;;5015398;28;2065;-67
2021/11/10 12:26:16;;;;;;;;;;;22.30;59.20;;;;;;5014978;28;1098;-67
2021/11/10 12:28:48;;;;;;;;;;;22.30;59.20;;;;;;5014385;28;1290;-67
2021/11/10 12:31:26;;;;;;;;;;;22.30;59.20;;;;;;5013155;28;1965;-67
2021/11/10 12:33:52;;;;;;;;;;;22.30;59.20;;;;;;5015842;28;1273;-67
2021/11/10 12:36:17;;;;;;;;;;;22.30;59.30;;;;;;5013111;28;1326;-67
2021/11/10 12:38:43;;;;;;;;;;;22.30;59.30;;;;;;5014061;28;1324;-67
2021/11/10 12:41:09;;;;;;;;;;;22.30;59.30;;;;;;5013286;28;1563;-66
2021/11/10 12:43:38;;;;;;;;;;;22.20;59.30;;;;;;5014426;28;1435;-66
2021/11/10 12:46:05;;;;;;;;;;;22.30;59.40;;;;;;5014376;28;1386;-67
2021/11/10 12:48:41;;;;;;;;;;;22.20;59.30;;;;;;5015448;28;1367;-66
2021/11/10 12:51:13;;;;;;;;;;;22.20;59.40;;;;;;5015208;28;1962;-66
2021/11/10 12:53:42;;;;;;;;;;;22.30;59.40;;;;;;5015580;28;1286;-66
2021/11/10 12:56:08;;;;;;;;;;;22.30;59.40;;;;;;5014038;28;1284;-66
2021/11/10 12:58:34;;;;;;;;;;;22.30;59.40;;;;;;5013502;28;1352;-66
2021/11/10 13:01:06;;;;;;;;;;;22.30;59.40;;;;;;5013085;28;1332;-67
2021/11/10 13:03:34;;;;;;;;;;;22.30;59.40;;;;;;5014985;28;1103;-66
2021/11/10 13:06:07;;;;;;;;;;;22.20;59.40;;;;;;5014972;28;1295;-66
2021/11/10 13:08:52;;;;;;;;;;;22.30;59.40;;;;;;5014721;28;1369;-66
2021/11/10 13:11:18;;;;;;;;;;;22.30;59.40;;;;;;5014732;28;1959;-67
2021/11/10 13:13:44;;;;;;;;;;;22.30;59.50;;;;;;5014541;28;1379;-66
2021/11/10 13:16:09;;;;;;;;;;;22.20;59.50;;;;;;5014954;28;1182;-66
2021/11/10 13:18:35;;;;;;;;;;;22.20;59.50;;;;;;5018063;28;1706;-66
2021/11/10 13:21:00;;;;;;;;;;;22.20;59.50;;;;;;5022047;28;1282;-67
2021/11/10 13:23:31;;;;;;;;;;;22.20;59.60;;;;;;5014584;28;1270;-67
2021/11/10 13:25:56;;;;;;;;;;;22.20;59.60;;;;;;5014153;28;1342;-69
2021/11/10 13:28:22;;;;;;;;;;;22.20;59.60;;;;;;5014270;28;1299;-69
2021/11/10 13:30:48;;;;;;;;;;;22.20;59.70;;;;;;5014456;28;1898;-68
2021/11/10 13:33:26;;;;;;;;;;;22.20;59.70;;;;;;5013392;28;1342;-69
2021/11/10 13:36:04;;;;;;;;;;;22.10;59.70;;;;;;5014348;28;1249;-70
2021/11/10 13:38:40;;;;;;;;;;;22.10;59.70;;;;;;5013377;28;1316;-70
2021/11/10 13:41:18;;;;;;;;;;;22.10;59.70;;;;;;5012331;28;1367;-69
2021/11/10 13:43:47;;;;;;;;;;;22.10;59.60;;;;;;5013951;28;1262;-69
2021/11/10 13:46:13;;;;;;;;;;;22.10;59.60;;;;;;5014119;28;1393;-69
2021/11/10 13:48:38;;;;;;;;;;;22.10;59.60;;;;;;5029292;28;1292;-69
2021/11/10 13:51:05;;;;;;;;;;;22.10;59.60;;;;;;5014262;28;1898;-69
2021/11/10 13:53:30;;;;;;;;;;;22.10;59.60;;;;;;5024520;28;1340;-68
2021/11/10 13:55:58;;;;;;;;;;;22.10;59.50;;;;;;5033297;28;1366;-71
2021/11/10 13:58:23;;;;;;;;;;;22.10;59.50;;;;;;5033159;28;1332;-70
2021/11/10 14:00:49;;;;;;;;;;;22.10;59.50;;;;;;5032730;28;1302;-70
2021/11/10 14:03:18;;;;;;;;;;;22.10;59.90;;;;;;5023931;28;1138;-70
2021/11/10 14:05:44;;;;;;;;;;;22.10;59.80;;;;;;5031755;28;1152;-70
2021/11/10 14:08:09;;;;;;;;;;;22.10;59.80;;;;;;5032937;28;1336;-70
2021/11/10 14:10:36;;;;;;;;;;;22.10;59.80;;;;;;5033356;28;1894;-70
2021/11/10 14:13:02;;;;;;;;;;;22.10;59.80;;;;;;5014654;28;1579;-70
2021/11/10 14:15:32;;;;;;;;;;;22.10;59.80;;;;;;5011999;28;1289;-70
2021/11/10 14:17:58;;;;;;;;;;;22.10;59.80;;;;;;5028426;28;1279;-71
2021/11/10 14:20:27;;;;;;;;;;;22.10;59.80;;;;;;5013104;28;1548;-71
2021/11/10 14:23:12;;;;;;;;;;;22.10;59.80;;;;;;5011693;28;1352;-72
2021/11/10 14:25:43;;;;;;;;;;;22.00;59.80;;;;;;5009605;28;1275;-72
2021/11/10 14:28:08;;;;;;;;;;;22.00;59.80;;;;;;5011739;28;1282;-71
2021/11/10 14:30:38;;;;;;;;;;;22.00;59.80;;;;;;5011036;28;1999;-71